sensor_id;sensor_type;location;lat;lon;timestamp;temperature;humidity
11583;DHT22;34299;50.820;4.548;2023-06-22T00:02:02;19.90;99.90
11583;DHT22;34299;50.820;4.548;2023-06-22T00:04:30;19.80;99.90
11583;DHT22;34299;50.820;4.548;2023-06-22T00:06:57;19.80;99.90
11583;DHT22;34299;50.820;4.548;2023-06-22T00:09:24;19.60;99.90
11583;DHT22;34299;50.820;4.548;2023-06-22T00:11:51;19.60;99.90
11583;DHT22;34299;50.820;4.548;2023-06-22T00:14:18;19.50;99.90
11583;DHT22;34299;50.820;4.548;2023-06-22T00:16:45;19.50;99.90
11583;DHT22;34299;50.820;4.548;2023-06-22T00:19:14;19.30;99.90
11583;DHT22;34299;50.820;4.548;2023-06-22T00:21:43;19.20;99.90
11583;DHT22;34299;50.820;4.548;2023-06-22T00:24:12;19.10;99.90
11583;DHT22;34299;50.820;4.548;2023-06-22T00:26:39;19.00;99.90
11583;DHT22;34299;50.820;4.548;2023-06-22T00:29:06;18.90;99.90
11583;DHT22;34299;50.820;4.548;2023-06-22T00:31:33;18.90;99.90
11583;DHT22;34299;50.820;4.548;2023-06-22T00:34:00;19.00;99.90
11583;DHT22;34299;50.820;4.548;2023-06-22T00:36:27;19.30;99.90
11583;DHT22;34299;50.820;4.548;2023-06-22T00:38:55;19.20;99.90
11583;DHT22;34299;50.820;4.548;2023-06-22T00:41:23;19.00;99.90
11583;DHT22;34299;50.820;4.548;2023-06-22T00:43:50;18.90;99.90
11583;DHT22;34299;50.820;4.548;2023-06-22T00:46:17;18.90;99.90
11583;DHT22;34299;50.820;4.548;2023-06-22T00:48:44;18.90;99.90
11583;DHT22;34299;50.820;4.548;2023-06-22T00:51:11;18.80;99.90
11583;DHT22;34299;50.820;4.548;2023-06-22T00:53:38;18.80;99.90
11583;DHT22;34299;50.820;4.548;2023-06-22T00:56:08;18.80;99.90
11583;DHT22;34299;50.820;4.548;2023-06-22T00:58:38;18.70;99.90
11583;DHT22;34299;50.820;4.548;2023-06-22T01:01:07;18.70;99.90
11583;DHT22;34299;50.820;4.548;2023-06-22T01:03:34;18.80;99.90
11583;DHT22;34299;50.820;4.548;2023-06-22T01:06:08;18.70;99.90
11583;DHT22;34299;50.820;4.548;2023-06-22T01:08:44;18.90;99.90
11583;DHT22;34299;50.820;4.548;2023-06-22T01:11:18;18.90;99.90
11583;DHT22;34299;50.820;4.548;2023-06-22T01:13:52;18.90;99.90
11583;DHT22;34299;50.820;4.548;2023-06-22T01:16:25;18.90;99.90
11583;DHT22;34299;50.820;4.548;2023-06-22T01:18:55;18.90;99.90
11583;DHT22;34299;50.820;4.548;2023-06-22T01:21:25;19.00;99.90
11583;DHT22;34299;50.820;4.548;2023-06-22T01:24:02;18.90;99.90
11583;DHT22;34299;50.820;4.548;2023-06-22T01:26:37;18.70;99.90
11583;DHT22;34299;50.820;4.548;2023-06-22T01:29:08;19.00;99.90
11583;DHT22;34299;50.820;4.548;2023-06-22T01:31:39;19.00;99.90
11583;DHT22;34299;50.820;4.548;2023-06-22T01:34:08;18.90;99.90
11583;DHT22;34299;50.820;4.548;2023-06-22T01:36:36;18.70;99.90
11583;DHT22;34299;50.820;4.548;2023-06-22T01:39:05;18.60;99.90
11583;DHT22;34299;50.820;4.548;2023-06-22T01:41:35;18.40;99.90
11583;DHT22;34299;50.820;4.548;2023-06-22T01:44:06;18.30;99.90
11583;DHT22;34299;50.820;4.548;2023-06-22T01:56:24;18.20;99.90
11583;DHT22;34299;50.820;4.548;2023-06-22T01:58:57;17.80;99.90
11583;DHT22;34299;50.820;4.548;2023-06-22T02:01:30;17.80;99.90
11583;DHT22;34299;50.820;4.548;2023-06-22T02:04:03;17.50;99.90
11583;DHT22;34299;50.820;4.548;2023-06-22T02:06:34;17.50;99.90
11583;DHT22;34299;50.820;4.548;2023-06-22T02:09:07;17.70;99.90
11583;DHT22;34299;50.820;4.548;2023-06-22T02:11:36;17.90;99.90
11583;DHT22;34299;50.820;4.548;2023-06-22T02:14:04;18.00;99.90
11583;DHT22;34299;50.820;4.548;2023-06-22T02:16:33;17.90;99.90
11583;DHT22;34299;50.820;4.548;2023-06-22T02:19:01;17.70;99.90
11583;DHT22;34299;50.820;4.548;2023-06-22T02:21:29;17.70;99.90
11583;DHT22;34299;50.820;4.548;2023-06-22T02:23:56;17.70;99.90
11583;DHT22;34299;50.820;4.548;2023-06-22T05:36:25;17.50;99.90
11583;DHT22;34299;50.820;4.548;2023-06-22T05:38:52;19.00;99.90
11583;DHT22;34299;50.820;4.548;2023-06-22T05:41:19;19.30;99.90
11583;DHT22;34299;50.820;4.548;2023-06-22T05:43:48;19.40;99.90
11583;DHT22;34299;50.820;4.548;2023-06-22T05:46:15;19.50;99.90
11583;DHT22;34299;50.820;4.548;2023-06-22T05:48:42;19.40;99.90
11583;DHT22;34299;50.820;4.548;2023-06-22T05:51:10;19.50;99.90
11583;DHT22;34299;50.820;4.548;2023-06-22T05:53:36;19.70;99.90
11583;DHT22;34299;50.820;4.548;2023-06-22T05:56:04;19.80;99.90
11583;DHT22;34299;50.820;4.548;2023-06-22T05:58:30;19.80;99.90
11583;DHT22;34299;50.820;4.548;2023-06-22T06:00:59;19.80;99.90
11583;DHT22;34299;50.820;4.548;2023-06-22T06:03:26;19.90;99.90
11583;DHT22;34299;50.820;4.548;2023-06-22T06:05:54;19.90;99.90
11583;DHT22;34299;50.820;4.548;2023-06-22T06:08:21;20.10;99.90
11583;DHT22;34299;50.820;4.548;2023-06-22T06:10:48;20.10;99.90
11583;DHT22;34299;50.820;4.548;2023-06-22T06:13:15;20.20;99.90
11583;DHT22;34299;50.820;4.548;2023-06-22T06:15:42;20.10;99.90
11583;DHT22;34299;50.820;4.548;2023-06-22T06:18:10;20.20;99.90
11583;DHT22;34299;50.820;4.548;2023-06-22T06:20:38;20.30;99.90
11583;DHT22;34299;50.820;4.548;2023-06-22T06:23:05;20.30;99.90
11583;DHT22;34299;50.820;4.548;2023-06-22T06:25:32;20.40;99.90
11583;DHT22;34299;50.820;4.548;2023-06-22T06:27:59;20.50;99.90
11583;DHT22;34299;50.820;4.548;2023-06-22T06:30:26;20.60;99.90
11583;DHT22;34299;50.820;4.548;2023-06-22T06:32:53;20.70;99.90
11583;DHT22;34299;50.820;4.548;2023-06-22T06:35:21;20.80;99.90
11583;DHT22;34299;50.820;4.548;2023-06-22T06:37:50;20.80;99.90
11583;DHT22;34299;50.820;4.548;2023-06-22T06:40:18;20.80;99.90
11583;DHT22;34299;50.820;4.548;2023-06-22T06:42:46;20.90;99.90
11583;DHT22;34299;50.820;4.548;2023-06-22T06:45:16;21.00;99.90
11583;DHT22;34299;50.820;4.548;2023-06-22T06:47:43;21.10;99.90
11583;DHT22;34299;50.820;4.548;2023-06-22T06:50:11;21.00;99.90
11583;DHT22;34299;50.820;4.548;2023-06-22T07:42:04;21.10;99.90
11583;DHT22;34299;50.820;4.548;2023-06-22T07:44:32;21.20;99.90
11583;DHT22;34299;50.820;4.548;2023-06-22T07:46:59;21.00;99.90
11583;DHT22;34299;50.820;4.548;2023-06-22T07:49:28;21.10;99.90
11583;DHT22;34299;50.820;4.548;2023-06-22T07:51:55;21.00;99.90
11583;DHT22;34299;50.820;4.548;2023-06-22T07:54:22;21.00;99.90
11583;DHT22;34299;50.820;4.548;2023-06-22T07:56:49;21.00;99.90
11583;DHT22;34299;50.820;4.548;2023-06-22T07:59:16;21.00;99.90
11583;DHT22;34299;50.820;4.548;2023-06-22T08:01:44;21.10;99.90
11583;DHT22;34299;50.820;4.548;2023-06-22T08:04:11;21.10;99.90
11583;DHT22;34299;50.820;4.548;2023-06-22T08:06:38;21.10;99.90
11583;DHT22;34299;50.820;4.548;2023-06-22T08:09:05;21.10;99.90
11583;DHT22;34299;50.820;4.548;2023-06-22T08:11:32;20.90;99.90
11583;DHT22;34299;50.820;4.548;2023-06-22T08:13:59;21.10;99.90
11583;DHT22;34299;50.820;4.548;2023-06-22T08:16:26;21.20;99.90
11583;DHT22;34299;50.820;4.548;2023-06-22T08:18:56;21.00;99.90
11583;DHT22;34299;50.820;4.548;2023-06-22T08:21:26;20.90;99.90
11583;DHT22;34299;50.820;4.548;2023-06-22T08:23:59;20.70;99.90
11583;DHT22;34299;50.820;4.548;2023-06-22T08:26:41;20.70;99.90
11583;DHT22;34299;50.820;4.548;2023-06-22T08:29:11;20.70;99.90
11583;DHT22;34299;50.820;4.548;2023-06-22T08:31:41;20.80;99.90
11583;DHT22;34299;50.820;4.548;2023-06-22T08:34:21;20.70;99.90
11583;DHT22;34299;50.820;4.548;2023-06-22T08:36:57;20.70;99.90
11583;DHT22;34299;50.820;4.548;2023-06-22T08:39:35;20.70;99.90
11583;DHT22;34299;50.820;4.548;2023-06-22T08:42:05;20.70;99.90
11583;DHT22;34299;50.820;4.548;2023-06-22T08:44:39;20.70;99.90
11583;DHT22;34299;50.820;4.548;2023-06-22T08:47:09;20.80;99.90
11583;DHT22;34299;50.820;4.548;2023-06-22T08:49:57;20.90;99.90
11583;DHT22;34299;50.820;4.548;2023-06-22T08:52:51;21.10;99.90
11583;DHT22;34299;50.820;4.548;2023-06-22T08:55:20;20.90;99.90
11583;DHT22;34299;50.820;4.548;2023-06-22T08:57:51;21.10;99.90
11583;DHT22;34299;50.820;4.548;2023-06-22T09:00:21;21.10;99.90
11583;DHT22;34299;50.820;4.548;2023-06-22T09:03:08;21.10;99.90
11583;DHT22;34299;50.820;4.548;2023-06-22T09:05:42;21.10;99.90
11583;DHT22;34299;50.820;4.548;2023-06-22T09:08:21;20.80;99.90
11583;DHT22;34299;50.820;4.548;2023-06-22T09:10:58;20.80;99.90
11583;DHT22;34299;50.820;4.548;2023-06-22T09:13:41;20.70;99.90
11583;DHT22;34299;50.820;4.548;2023-06-22T09:16:10;20.40;99.90
11583;DHT22;34299;50.820;4.548;2023-06-22T09:18:45;20.00;99.90
